Time;durP1;ratioP1;P1;durP2;ratioP2;P2;SDS_P1;SDS_P2;PMS_P1;PMS_P2;Temp;Humidity;BMP_temperature;BMP_pressure;BME280_temperature;BME280_humidity;BME280_pressure;Samples;Min_cycle;Max_cycle;Signal;HPM_P1;HPM_P2
2023/01/05 08:08:36;;;;;;;56.97;28.80;;;6.40;99.90;;;;;;6185076;22;20998;-79
2023/01/05 09:03:28;;;;;;;27.67;13.63;;;6.80;99.90;;;;;;6239552;22;20246;-77
2023/01/05 09:10:48;;;;;;;32.13;13.63;;;6.80;99.90;;;;;;6165847;22;20134;31
2023/01/05 09:13:16;;;;;;;32.60;16.27;;;6.80;99.90;;;;;;6194165;23;20035;-80
2023/01/05 09:26:17;;;;;;;40.55;16.85;;;6.80;99.90;;;;;;6244464;22;20854;-80
2023/01/05 09:32:17;;;;;;;27.97;12.83;;;6.90;99.90;;;;;;6203826;22;20036;-79
2023/01/05 10:06:41;;;;;;;28.80;13.38;;;7.20;99.90;;;;;;6194994;22;20036;31
2023/01/05 10:16:31;;;;;;;31.33;15.88;;;7.30;99.90;;;;;;6191366;22;20348;31
2023/01/05 10:31:57;;;;;;;26.92;13.20;;;7.40;99.90;;;;;;6229279;22;20031;-79
2023/01/05 10:35:04;;;;;;;28.92;13.63;;;7.40;99.90;;;;;;6193987;23;20031;-81
2023/01/05 10:38:06;;;;;;;25.98;12.75;;;7.50;99.90;;;;;;6184060;22;20020;-80
2023/01/05 10:40:58;;;;;;;26.13;13.00;;;7.50;99.90;;;;;;6205965;22;20161;31
2023/01/05 10:43:57;;;;;;;29.98;14.43;;;7.60;99.90;;;;;;6197236;22;20008;-79
2023/01/05 10:46:28;;;;;;;32.53;14.70;;;8.00;99.90;;;;;;6143847;23;20017;-79
2023/01/05 10:49:06;;;;;;;27.20;13.25;;;7.60;99.90;;;;;;6143566;23;20021;-79
2023/01/05 10:55:12;;;;;;;33.33;15.68;;;7.60;99.90;;;;;;6208650;22;20047;-79
2023/01/05 10:57:56;;;;;;;31.23;15.05;;;7.50;99.90;;;;;;6097716;23;20062;-79
2023/01/05 11:00:40;;;;;;;31.05;13.63;;;7.50;99.90;;;;;;6073639;23;20009;-79
2023/01/05 11:03:14;;;;;;;25.65;13.50;;;7.50;99.90;;;;;;6203504;22;20027;-78
2023/01/05 11:05:49;;;;;;;53.05;27.95;;;7.50;99.90;;;;;;6225212;23;20021;-78
2023/01/05 11:14:47;;;;;;;28.20;13.60;;;7.50;99.90;;;;;;6189661;22;20049;-79
2023/01/05 11:17:29;;;;;;;31.30;16.23;;;7.60;99.90;;;;;;6129848;23;20030;-79
2023/01/05 11:39:53;;;;;;;40.25;17.20;;;7.60;99.90;;;;;;6201737;23;20068;-80
2023/01/05 11:42:35;;;;;;;40.50;19.65;;;7.60;99.90;;;;;;6127974;23;20025;-80
2023/01/05 11:48:50;;;;;;;30.33;15.27;;;7.60;99.90;;;;;;6163228;23;20060;31
2023/01/05 11:51:39;;;;;;;42.30;18.67;;;7.70;99.90;;;;;;6166426;22;20013;-79
2023/01/05 12:07:26;;;;;;;20.67;9.83;;;8.20;99.90;;;;;;6197140;22;20934;31
2023/01/05 12:13:02;;;;;;;18.17;7.80;;;8.20;99.90;;;;;;6202645;22;20028;-80
2023/01/05 13:59:30;;;;;;;10.32;4.68;;;8.40;99.90;;;;;;6205707;22;20538;-80
2023/01/05 14:15:35;;;;;;;10.73;4.15;;;8.30;99.90;;;;;;6171419;23;20036;-79
2023/01/05 14:18:33;;;;;;;7.47;4.07;;;8.20;99.90;;;;;;6145300;23;20032;-79
2023/01/05 14:21:11;;;;;;;12.73;5.50;;;8.80;99.90;;;;;;6113622;23;20109;-78
2023/01/05 14:23:47;;;;;;;18.50;8.13;;;8.20;99.90;;;;;;6115500;23;20010;-78
2023/01/05 14:26:15;;;;;;;12.50;5.93;;;8.20;99.90;;;;;;6086531;23;20022;-78
2023/01/05 14:28:47;;;;;;;10.88;6.20;;;8.20;99.90;;;;;;6102626;23;20022;-79
2023/01/05 14:31:15;;;;;;;9.82;6.05;;;8.20;99.90;;;;;;6103629;23;20042;-79
2023/01/05 14:34:02;;;;;;;15.95;8.50;;;8.10;99.90;;;;;;6110198;23;20485;-79
2023/01/05 14:39:51;;;;;;;11.70;6.13;;;8.10;99.90;;;;;;6248674;22;20050;-78
2023/01/05 14:42:29;;;;;;;7.15;3.75;;;8.10;99.90;;;;;;6190421;23;20028;-77
2023/01/05 14:45:00;;;;;;;8.32;3.63;;;8.10;99.90;;;;;;6215399;22;20050;-78
2023/01/05 14:50:41;;;;;;;6.95;3.53;;;8.00;99.90;;;;;;6161119;23;20025;-79
2023/01/05 14:53:44;;;;;;;8.02;3.40;;;8.00;99.90;;;;;;6182972;23;20025;-77
2023/01/05 14:56:44;;;;;;;8.38;3.95;;;8.00;99.90;;;;;;6140144;22;20025;-79
2023/01/05 14:59:24;;;;;;;8.45;3.40;;;8.00;99.90;;;;;;6125617;23;20037;-78
2023/01/05 15:02:10;;;;;;;5.80;3.10;;;7.90;99.90;;;;;;6129242;22;20020;-79
2023/01/05 15:04:41;;;;;;;6.07;3.20;;;8.00;99.90;;;;;;6159345;23;20017;-79
2023/01/05 15:10:48;;;;;;;9.70;3.70;;;8.00;99.90;;;;;;6233910;23;20400;-80
2023/01/05 15:17:17;;;;;;;8.90;3.58;;;7.90;99.90;;;;;;6210747;23;20094;-79
2023/01/05 15:20:17;;;;;;;11.70;3.97;;;7.80;99.90;;;;;;6186422;23;20013;-79
2023/01/05 15:23:10;;;;;;;14.68;6.47;;;7.80;99.90;;;;;;6190342;23;20021;-79
2023/01/05 15:26:12;;;;;;;23.98;11.15;;;7.70;99.90;;;;;;6205196;23;20017;-79
2023/01/05 15:29:17;;;;;;;19.67;7.97;;;7.70;99.90;;;;;;6145449;23;20048;-79
2023/01/05 15:31:55;;;;;;;12.13;5.40;;;7.70;99.90;;;;;;6148988;23;20013;-79
2023/01/05 15:34:42;;;;;;;14.40;7.80;;;7.70;99.90;;;;;;6148467;23;20021;-79
2023/01/05 15:37:37;;;;;;;12.57;5.10;;;7.70;99.90;;;;;;6182776;23;20406;-79
2023/01/05 15:40:32;;;;;;;10.48;5.13;;;7.70;99.90;;;;;;6183053;23;20005;-79
2023/01/05 15:43:02;;;;;;;22.70;10.73;;;7.60;99.90;;;;;;6171416;22;21637;-78
2023/01/05 15:45:42;;;;;;;27.80;15.15;;;7.60;99.90;;;;;;6183271;23;20020;-78
2023/01/05 15:48:27;;;;;;;21.58;12.88;;;7.60;99.90;;;;;;6181398;22;20059;-79
2023/01/05 15:50:57;;;;;;;18.67;9.80;;;7.60;99.90;;;;;;6158106;23;20017;-79
2023/01/05 15:53:32;;;;;;;10.23;4.57;;;7.00;99.90;;;;;;6187316;22;20029;-80
2023/01/05 15:56:35;;;;;;;11.82;4.68;;;7.60;99.90;;;;;;6180006;23;19998;-79
2023/01/05 15:59:25;;;;;;;15.23;6.00;;;7.60;99.90;;;;;;6181995;23;20065;-79
2023/01/05 16:01:52;;;;;;;12.30;4.80;;;7.60;99.90;;;;;;6207829;23;20057;-79
2023/01/05 16:04:21;;;;;;;11.20;3.90;;;7.60;99.90;;;;;;6180873;23;20004;-79
2023/01/05 16:07:09;;;;;;;9.35;4.28;;;7.60;99.90;;;;;;6207070;23;20020;-79
2023/01/05 16:09:58;;;;;;;9.93;4.47;;;7.70;99.90;;;;;;6179693;22;20008;-79
2023/01/05 16:12:50;;;;;;;11.90;4.50;;;7.60;99.90;;;;;;6119227;23;20045;-79
2023/01/05 16:15:20;;;;;;;9.70;4.32;;;7.60;99.90;;;;;;6114107;23;20006;-79
2023/01/05 16:17:52;;;;;;;11.02;2.95;;;7.50;99.90;;;;;;6150538;22;20024;-79
2023/01/05 16:20:23;;;;;;;;;;;7.50;99.90;;;;;;6150657;23;19997;-79
2023/01/05 16:23:45;;;;;;;7.97;2.90;;;7.50;99.90;;;;;;6145828;23;19936;-79
2023/01/05 16:26:17;;;;;;;8.80;2.80;;;7.60;99.90;;;;;;6140771;23;20080;-79
2023/01/05 16:28:45;;;;;;;10.32;3.53;;;7.50;99.90;;;;;;6117854;23;20049;-79
2023/01/05 16:31:34;;;;;;;11.60;3.65;;;7.50;99.90;;;;;;6146597;23;20077;-79
2023/01/05 16:34:12;;;;;;;8.48;3.38;;;7.50;99.90;;;;;;6150531;23;20005;-79
2023/01/05 16:36:39;;;;;;;9.07;3.72;;;7.60;99.90;;;;;;6206349;23;20028;-81
2023/01/05 16:39:21;;;;;;;10.57;3.10;;;7.60;99.90;;;;;;6234168;23;20047;-80
2023/01/05 16:44:36;;;;;;;17.48;7.47;;;6.90;99.90;;;;;;6228990;23;20048;-80
2023/01/05 16:47:08;;;;;;;13.35;2.97;;;7.60;99.90;;;;;;6231962;23;20492;-79
2023/01/05 16:49:45;;;;;;;5.00;2.42;;;7.50;99.90;;;;;;6200541;22;20008;-80
2023/01/05 16:52:24;;;;;;;9.30;3.47;;;7.00;99.90;;;;;;6171234;23;20404;-80
2023/01/05 16:55:36;;;;;;;8.73;1.92;;;7.50;99.90;;;;;;6196059;23;20017;-79
2023/01/05 16:58:23;;;;;;;8.32;2.03;;;7.60;99.90;;;;;;6109106;23;20101;-79
2023/01/05 17:00:51;;;;;;;5.90;2.10;;;7.50;99.90;;;;;;6114599;23;20030;-78
2023/01/05 17:03:31;;;;;;;7.20;2.67;;;7.70;99.90;;;;;;6139612;23;20013;-78
2023/01/05 17:06:02;;;;;;;8.85;3.63;;;7.70;99.90;;;;;;6198785;23;20065;-78
2023/01/05 17:08:34;;;;;;;10.20;3.47;;;7.70;99.90;;;;;;6200095;23;20025;-78
2023/01/05 17:11:34;;;;;;;12.45;3.70;;;7.70;99.90;;;;;;6156303;22;20025;-79
2023/01/05 17:14:10;;;;;;;8.52;2.83;;;7.90;99.90;;;;;;6229751;23;20499;-79
2023/01/05 17:16:53;;;;;;;6.65;2.10;;;7.80;99.90;;;;;;6228631;23;20020;-78
2023/01/05 17:19:20;;;;;;;;;;;7.80;99.90;;;;;;6207370;23;20522;-79
2023/01/05 17:22:04;;;;;;;6.30;1.55;;;7.90;99.90;;;;;;6207964;23;19900;-79
2023/01/05 17:24:39;;;;;;;10.07;4.07;;;7.80;99.90;;;;;;6182561;23;20043;-79
2023/01/05 17:27:15;;;;;;;8.60;1.90;;;7.70;99.90;;;;;;6232196;23;20024;-79
2023/01/05 17:29:42;;;;;;;4.07;1.50;;;7.80;99.90;;;;;;6226507;22;20091;-78
2023/01/05 17:32:10;;;;;;;14.90;4.13;;;7.80;99.90;;;;;;6229967;22;20008;-78
2023/01/05 17:34:54;;;;;;;10.05;3.83;;;7.60;99.90;;;;;;6172945;23;20021;-79
2023/01/05 17:37:22;;;;;;;132.27;53.97;;;7.90;99.90;;;;;;6190830;23;20025;-78
2023/01/05 17:39:51;;;;;;;21.35;11.98;;;7.30;99.90;;;;;;6197950;23;20023;-78
2023/01/05 17:45:18;;;;;;;15.07;10.10;;;7.90;99.90;;;;;;6198172;23;20417;-78
2023/01/05 17:47:50;;;;;;;15.70;9.27;;;8.00;99.90;;;;;;6201287;23;20009;-79
2023/01/05 17:50:29;;;;;;;15.23;10.93;;;7.90;99.90;;;;;;6198803;23;20684;-78
2023/01/05 17:53:02;;;;;;;5.97;3.70;;;7.90;99.90;;;;;;6176245;23;20064;-78
2023/01/05 17:55:34;;;;;;;9.10;4.57;;;8.00;99.90;;;;;;6179498;23;20025;-79
2023/01/05 17:58:46;;;;;;;7.60;2.58;;;8.10;99.90;;;;;;6081515;23;20033;-79
2023/01/05 18:01:15;;;;;;;8.43;4.40;;;8.10;99.90;;;;;;6051046;23;19999;-78
2023/01/05 18:03:45;;;;;;;6.78;2.33;;;8.10;99.90;;;;;;6031832;23;20148;-78
2023/01/05 18:06:20;;;;;;;6.90;2.95;;;7.50;99.90;;;;;;6053603;23;20031;-78
2023/01/05 18:09:09;;;;;;;5.55;2.83;;;8.10;99.90;;;;;;6032095;23;20023;-78
2023/01/05 18:11:50;;;;;;;9.85;5.28;;;8.20;99.90;;;;;;5966219;24;20027;-78
2023/01/05 18:14:18;;;;;;;8.85;1.98;;;8.20;99.90;;;;;;5942507;24;20442;-78
2023/01/05 18:16:46;;;;;;;7.50;2.10;;;8.20;99.90;;;;;;6039710;23;20026;-78
2023/01/05 18:19:14;;;;;;;4.70;2.15;;;8.20;99.90;;;;;;6105244;23;20082;-78
2023/01/05 18:21:41;;;;;;;13.68;3.85;;;8.30;99.90;;;;;;6082990;23;20022;-78
2023/01/05 18:24:11;;;;;;;20.00;6.88;;;8.20;99.90;;;;;;6055232;23;20022;-78
2023/01/05 18:26:40;;;;;;;10.85;7.00;;;8.20;99.90;;;;;;5987345;23;20466;-79
2023/01/05 18:29:07;;;;;;;9.63;5.50;;;8.30;99.90;;;;;;6192267;23;20025;-78
2023/01/05 18:31:37;;;;;;;16.48;8.20;;;8.20;99.90;;;;;;6169171;23;20029;-78
2023/01/05 18:34:12;;;;;;;8.90;4.55;;;8.20;99.90;;;;;;6167110;23;20024;-78
2023/01/05 18:36:43;;;;;;;14.80;8.05;;;8.20;99.90;;;;;;6167003;23;20397;-79
2023/01/05 18:39:31;;;;;;;10.20;3.92;;;8.20;99.90;;;;;;6184338;23;20029;-79
2023/01/05 18:42:00;;;;;;;9.38;3.13;;;8.10;99.90;;;;;;6166097;23;20025;-78
2023/01/05 18:44:28;;;;;;;5.30;2.03;;;8.20;99.90;;;;;;6170764;23;20345;-78
2023/01/05 18:47:09;;;;;;;7.40;1.77;;;8.20;99.90;;;;;;6184298;22;20115;-77
2023/01/05 18:49:56;;;;;;;10.98;3.13;;;8.20;99.90;;;;;;6236130;22;20333;-78
2023/01/05 18:53:11;;;;;;;7.68;4.00;;;8.00;99.90;;;;;;6238070;23;20004;-78
2023/01/05 18:55:42;;;;;;;3.75;1.77;;;8.00;99.90;;;;;;6203026;23;20092;-78
2023/01/05 18:58:33;;;;;;;4.15;1.40;;;8.20;99.90;;;;;;6197050;22;20020;31
2023/01/05 19:01:13;;;;;;;7.90;4.03;;;8.50;99.90;;;;;;6200265;23;20511;-79
2023/01/05 19:06:42;;;;;;;8.48;3.00;;;8.30;99.90;;;;;;6088580;23;20026;-78
2023/01/05 19:10:16;;;;;;;8.32;3.88;;;8.20;99.90;;;;;;6166672;22;20028;-78
2023/01/05 19:13:04;;;;;;;11.35;5.22;;;8.30;99.90;;;;;;6188675;23;20005;-78
2023/01/05 19:15:43;;;;;;;18.65;6.43;;;8.80;99.90;;;;;;6208836;22;20016;-80
2023/01/05 19:22:14;;;;;;;4.85;2.03;;;8.20;99.90;;;;;;6236527;23;20059;-79
2023/01/05 19:25:21;;;;;;;13.88;4.70;;;8.20;99.90;;;;;;6215187;23;20028;-78
2023/01/05 19:28:26;;;;;;;13.30;4.82;;;8.20;99.90;;;;;;6196785;23;20008;-79
2023/01/05 19:31:05;;;;;;;22.20;8.35;;;8.10;99.90;;;;;;6161736;23;20040;-78
2023/01/05 19:34:18;;;;;;;11.73;4.25;;;8.30;99.90;;;;;;6212744;23;20021;-78
2023/01/05 19:37:13;;;;;;;12.82;4.75;;;8.20;99.90;;;;;;6255968;23;20027;-78
2023/01/05 19:39:50;;;;;;;16.90;6.30;;;8.20;99.90;;;;;;6262636;22;20068;-78
2023/01/05 19:43:15;;;;;;;25.60;9.32;;;8.20;99.90;;;;;;6236600;23;20025;-78
2023/01/05 19:46:15;;;;;;;24.42;9.18;;;9.30;99.90;;;;;;6182404;23;20051;-78
2023/01/05 19:49:05;;;;;;;17.17;5.70;;;8.10;99.90;;;;;;6238294;23;20143;-78
2023/01/05 19:52:05;;;;;;;23.25;7.43;;;7.90;99.90;;;;;;6207000;22;20031;-79
2023/01/05 19:55:17;;;;;;;;;;;8.00;99.90;;;;;;6132648;23;20021;-78
2023/01/05 20:05:19;;;;;;;54.30;23.98;;;7.70;99.90;;;;;;6190586;22;20023;-77
2023/01/05 21:01:07;;;;;;;8.88;2.60;;;7.50;99.90;;;;;;6207146;22;21241;-80
2023/01/05 21:11:24;;;;;;;5.65;3.20;;;7.60;99.90;;;;;;6207769;22;20026;-79
2023/01/05 22:23:57;;;;;;;7.50;0.80;;;7.60;99.90;;;;;;6200852;22;20681;31
2023/01/05 22:29:58;;;;;;;8.77;1.88;;;7.60;99.90;;;;;;6192781;23;20047;31
2023/01/05 22:40:03;;;;;;;3.83;1.65;;;7.60;99.90;;;;;;6203324;22;20876;-79
2023/01/05 22:56:44;;;;;;;4.22;0.93;;;7.60;99.90;;;;;;6191181;22;20035;31
2023/01/05 23:00:37;;;;;;;6.68;1.80;;;7.00;99.90;;;;;;6220700;23;20015;-79
2023/01/05 23:03:17;;;;;;;2.78;1.00;;;7.70;99.90;;;;;;6243229;23;20023;-79
2023/01/05 23:12:11;;;;;;;7.15;3.25;;;7.80;99.90;;;;;;6219936;22;20026;-79
2023/01/05 23:25:10;;;;;;;2.30;0.40;;;7.70;99.90;;;;;;6145977;23;20871;31
2023/01/05 23:31:21;;;;;;;2.78;0.65;;;7.70;99.90;;;;;;6171202;22;20012;-80
2023/01/05 23:34:24;;;;;;;2.85;0.50;;;7.60;99.90;;;;;;6228457;22;20596;-79
2023/01/05 23:44:32;;;;;;;5.03;1.05;;;7.80;99.90;;;;;;6224373;22;20027;-78
2023/01/05 23:53:25;;;;;;;2.70;0.60;;;7.80;99.90;;;;;;6188159;22;20117;31
2023/01/05 23:56:52;;;;;;;4.40;0.95;;;7.80;99.90;;;;;;6195591;22;20046;-79
